Airfield :
LOGIN :

Register | Disclaimer

   EN    FR    IT 

 










Legend :    VFR   Marginal VFR   IFR   Intensive IFR   Very Intensive IFR
Visi :
Ceiling :
>= 8 km
>= 3000ft
5 to 8 km
1000 to 3000 ft
1500m to 5 km
500 to 1000 ft
800 to 1500m
200 to 500 ft
< 800m
< 200 ft
Symbols :   Thunderstorms  Fog  Heavy snow  Heavy precipitations  Wind > 20 kt
SIGMETs :     Misc.  Thunderstorms  Icing  Turbulence  Mountain Waves  Volcanic Ashes







- Airport Elevation : 1020 ft
- IATA code : ILZ


LZZI - Žilina

CURRENT METAR :
  • 220230Z 07003KT 9999 -RA BKN005 OVC023 03/03 Q1020

EXPIRED METARs :
  • 220200Z VRB01KT 9999 -RA BKN005 OVC023 03/02 Q1020
  • 220130Z 06002KT 9999 -RA BKN004 OVC023 03/02 Q1021
  • 220116Z 08002KT 9999 -RA BKN004 OVC023 03/03 Q1021
  • 220100Z VRB01KT 9999 -RA OVC025 03/02 Q1021
  • 220030Z VRB01KT 9999 -RA OVC024 03/02 Q1021
  • 220000Z 31003KT 270V330 9999 -RA OVC025 03/02 Q1021

TAF TAF LZZI
Valid from the 22 at 03:00 until the 22 at 12:00 UTC


220200Z 2203/2212 VRB02KT 9999 BKN020 OVC040
PROB40
TEMPO 2203/2209 4000 -RA BR BKN004 OVC020
BECMG 2207/2209 04010KT
TEMPO 2209/2212 03012G26KT SCT040
No reported NOTAMs for that airfield.



MET'MAP, your aeronautical weather chart ! - Copyright ORBIFLY December 2007 - Disclaimer

ORBIFLY MET'MAP TEAM :

Programming & Development : Alexandra Zaïnal
Concept & Development : Baudouin d'Aumeries
Co-Development & Prog : Marc-Olivier Méhu
Technical & hardware support : Manuel Goepfert

Contact : metmap@orbifly.com




SOURCES & CREDITS :

   NOAA